Time;durP1;ratioP1;P1;durP2;ratioP2;P2;SDS_P1;SDS_P2;PMS_P1;PMS_P2;Temp;Humidity;BMP_temperature;BMP_pressure;BME280_temperature;BME280_humidity;BME280_pressure;Samples;Min_cycle;Max_cycle;Signal;HPM_P1;HPM_P2
2023/10/02 00:03:34;;;;;;;27.58;13.07;;;16.30;86.90;;;;;;5033550;28;20510;-74
2023/10/02 00:06:00;;;;;;;25.77;13.20;;;16.30;86.40;;;;;;5033459;28;20383;-74
2023/10/02 00:08:34;;;;;;;27.10;12.65;;;16.30;85.60;;;;;;5033410;28;20382;-73
2023/10/02 00:14:18;;;;;;;24.13;12.45;;;16.20;87.10;;;;;;5033447;28;20433;-76
2023/10/02 00:16:42;;;;;;;25.17;12.83;;;16.20;87.00;;;;;;5036463;28;20414;-73
2023/10/02 00:19:18;;;;;;;28.05;13.15;;;16.30;85.80;;;;;;5041522;28;20406;-75
2023/10/02 00:21:45;;;;;;;27.75;12.73;;;16.30;85.90;;;;;;5044115;28;20478;-73
2023/10/02 00:24:12;;;;;;;26.48;12.60;;;16.30;85.70;;;;;;5049013;28;20407;-74
2023/10/02 00:26:38;;;;;;;27.52;13.35;;;16.40;84.70;;;;;;5048533;28;20375;-74
2023/10/02 00:29:06;;;;;;;25.25;13.02;;;16.40;83.90;;;;;;5050220;28;20409;-75
2023/10/02 00:31:36;;;;;;;24.75;12.18;;;16.40;83.20;;;;;;5042824;28;20394;-74
2023/10/02 00:34:02;;;;;;;27.10;12.47;;;16.30;84.30;;;;;;5036623;28;20465;-75
2023/10/02 00:36:30;;;;;;;25.45;12.55;;;16.30;84.30;;;;;;5034621;28;20415;-75
2023/10/02 00:44:55;;;;;;;29.65;12.70;;;16.30;84.60;;;;;;5031045;28;20394;-74
2023/10/02 00:47:38;;;;;;;26.15;12.38;;;16.20;85.60;;;;;;5032266;28;20470;-75
2023/10/02 00:50:18;;;;;;;27.10;13.10;;;16.20;85.90;;;;;;5034149;28;20413;-76
2023/10/02 00:52:46;;;;;;;28.90;12.50;;;16.20;85.90;;;;;;5033005;28;20470;-76
2023/10/02 00:55:15;;;;;;;28.83;12.80;;;16.20;86.00;;;;;;5032890;28;20383;-75
2023/10/02 00:57:42;;;;;;;29.52;13.32;;;16.20;85.20;;;;;;5033074;28;20395;-76
2023/10/02 01:00:17;;;;;;;28.97;12.80;;;16.20;84.90;;;;;;5032756;28;20387;-75
2023/10/02 01:02:48;;;;;;;28.48;12.73;;;16.30;84.00;;;;;;5032156;28;20416;-75
2023/10/02 01:05:16;;;;;;;28.80;13.02;;;16.30;84.10;;;;;;5032393;28;20383;-74
2023/10/02 01:07:46;;;;;;;28.70;13.40;;;16.30;83.00;;;;;;5034907;28;20379;-74
2023/10/02 01:10:19;;;;;;;28.85;12.82;;;16.30;83.30;;;;;;5032534;28;20380;-75
2023/10/02 01:12:53;;;;;;;25.33;12.40;;;16.30;84.00;;;;;;5040267;28;20391;-75
2023/10/02 01:15:20;;;;;;;26.83;12.38;;;16.20;83.70;;;;;;5035194;28;20386;-74
2023/10/02 01:17:48;;;;;;;33.38;12.73;;;16.20;83.10;;;;;;5035305;28;20525;-75
2023/10/02 01:20:35;;;;;;;28.27;13.20;;;16.20;84.40;;;;;;5036738;28;20429;-76
2023/10/02 01:23:25;;;;;;;27.10;12.70;;;16.20;83.80;;;;;;5032192;28;20534;-75
2023/10/02 01:25:49;;;;;;;24.05;12.40;;;16.20;83.20;;;;;;5031618;28;20521;-74
2023/10/02 01:28:20;;;;;;;29.10;13.75;;;16.10;84.00;;;;;;5032030;28;20415;-74
2023/10/02 01:30:47;;;;;;;27.43;12.97;;;16.10;84.80;;;;;;5031798;28;20863;-74
2023/10/02 01:33:26;;;;;;;29.03;13.33;;;16.20;83.70;;;;;;5031762;28;20382;-76
2023/10/02 01:35:55;;;;;;;28.08;12.93;;;16.10;84.80;;;;;;5031768;28;20390;-75
2023/10/02 01:38:32;;;;;;;27.20;13.27;;;16.10;85.50;;;;;;5031779;28;20394;-74
2023/10/02 01:41:06;;;;;;;27.27;12.63;;;16.00;85.60;;;;;;5031275;28;20390;-74
2023/10/02 01:43:39;;;;;;;28.02;13.10;;;16.00;85.90;;;;;;5031400;28;20406;-76
2023/10/02 01:46:05;;;;;;;27.02;13.27;;;16.00;85.90;;;;;;5030016;28;20391;-74
2023/10/02 01:48:36;;;;;;;28.33;12.48;;;16.00;86.10;;;;;;5031548;28;20376;-74
2023/10/02 01:51:28;;;;;;;28.67;13.20;;;16.10;83.90;;;;;;5030904;28;20389;-74
2023/10/02 01:53:58;;;;;;;24.75;13.20;;;16.00;85.00;;;;;;5031499;28;20390;-74
2023/10/02 01:56:29;;;;;;;26.77;12.75;;;16.00;84.80;;;;;;5031399;28;20401;-75
2023/10/02 01:59:08;;;;;;;29.17;13.60;;;16.00;85.00;;;;;;5031444;28;20394;-75
2023/10/02 02:01:46;;;;;;;29.98;13.85;;;16.00;84.70;;;;;;5031412;28;20478;-75
2023/10/02 02:04:14;;;;;;;29.30;12.90;;;16.00;84.20;;;;;;5031545;28;20407;-75
2023/10/02 02:06:51;;;;;;;26.35;12.52;;;16.10;82.90;;;;;;5031639;28;20418;-74
2023/10/02 02:09:23;;;;;;;28.80;12.85;;;16.20;81.60;;;;;;5031667;28;20391;-75
2023/10/02 02:12:10;;;;;;;26.65;13.57;;;16.10;82.40;;;;;;5031521;28;20470;-75
2023/10/02 02:14:41;;;;;;;26.08;12.30;;;16.20;80.80;;;;;;5031845;28;20387;-74
2023/10/02 02:17:10;;;;;;;26.15;12.13;;;16.10;81.60;;;;;;5032055;28;20466;-74
2023/10/02 02:19:37;;;;;;;29.55;13.48;;;16.00;82.70;;;;;;5031592;28;20371;-75
2023/10/02 02:22:03;;;;;;;24.70;13.07;;;16.00;84.80;;;;;;5031761;28;20907;-76
2023/10/02 02:24:34;;;;;;;28.55;12.63;;;16.00;84.40;;;;;;5031752;28;20819;-76
2023/10/02 02:27:04;;;;;;;29.50;13.33;;;16.00;83.00;;;;;;5031263;28;20391;-75
2023/10/02 02:29:30;;;;;;;27.23;12.98;;;16.10;82.30;;;;;;5030953;28;20445;-76
2023/10/02 02:31:56;;;;;;;26.52;12.68;;;16.10;82.10;;;;;;5030733;28;20441;-75
2023/10/02 02:34:23;;;;;;;28.35;12.52;;;16.10;82.00;;;;;;5029145;28;20412;-75
2023/10/02 02:36:50;;;;;;;28.75;13.25;;;16.10;81.10;;;;;;5030563;28;20504;-75
2023/10/02 02:39:18;;;;;;;26.20;12.50;;;16.10;81.10;;;;;;5030652;28;20563;-76
2023/10/02 02:42:08;;;;;;;30.45;13.38;;;16.00;82.80;;;;;;5031435;28;20394;-74
2023/10/02 02:44:46;;;;;;;27.58;13.35;;;15.90;82.60;;;;;;5030329;28;20407;-75
2023/10/02 02:47:21;;;;;;;27.80;12.65;;;16.00;83.00;;;;;;5030543;28;20380;-74
2023/10/02 02:49:52;;;;;;;25.38;11.75;;;15.90;83.20;;;;;;5028978;28;20546;-75
2023/10/02 02:52:20;;;;;;;28.38;12.95;;;15.90;83.20;;;;;;5030196;28;20926;-75
2023/10/02 02:54:47;;;;;;;31.50;13.38;;;16.00;82.80;;;;;;5030420;28;20429;-73
2023/10/02 02:57:15;;;;;;;27.60;13.10;;;16.00;82.70;;;;;;5030337;28;20386;-75
2023/10/02 02:59:40;;;;;;;27.85;13.30;;;16.00;81.90;;;;;;5030254;28;20382;-74
2023/10/02 03:02:09;;;;;;;26.85;12.70;;;16.00;81.00;;;;;;5030061;28;20391;-74
2023/10/02 03:04:38;;;;;;;27.73;12.88;;;16.00;81.20;;;;;;5030361;28;20383;-74
2023/10/02 03:07:29;;;;;;;27.38;13.40;;;15.90;81.60;;;;;;5030975;28;20405;-75
2023/10/02 03:09:58;;;;;;;28.40;12.70;;;15.90;81.60;;;;;;5033813;28;20505;-74
2023/10/02 03:12:24;;;;;;;25.77;12.83;;;15.90;82.00;;;;;;5034360;28;20463;-75
2023/10/02 03:14:54;;;;;;;25.77;12.80;;;15.90;83.20;;;;;;5034055;28;20386;-74
2023/10/02 03:17:28;;;;;;;23.52;12.13;;;15.90;81.40;;;;;;5034185;28;20379;-74
2023/10/02 03:20:00;;;;;;;26.85;13.27;;;15.90;82.00;;;;;;5034126;28;20393;-74
2023/10/02 03:22:27;;;;;;;27.10;13.60;;;15.80;82.60;;;;;;5033827;28;20438;-74
2023/10/02 03:24:57;;;;;;;28.08;13.18;;;15.80;82.70;;;;;;5055623;22;20793;-71
2023/10/02 03:27:23;;;;;;;30.50;13.40;;;15.90;82.20;;;;;;5053888;28;20374;-71
2023/10/02 03:29:52;;;;;;;32.17;12.90;;;15.90;81.90;;;;;;5053750;28;20468;-72
2023/10/02 03:32:18;;;;;;;29.20;13.23;;;15.80;82.20;;;;;;5053830;28;20374;-72
2023/10/02 03:34:48;;;;;;;30.20;13.27;;;15.80;81.30;;;;;;5035972;28;20845;-72
2023/10/02 03:37:15;;;;;;;30.20;13.30;;;15.80;81.90;;;;;;5053813;28;20396;-72
2023/10/02 03:39:53;;;;;;;26.23;12.60;;;15.70;82.10;;;;;;5053616;28;20718;-72
2023/10/02 03:42:23;;;;;;;28.60;12.97;;;15.70;83.30;;;;;;5053454;28;20381;-72
2023/10/02 03:44:58;;;;;;;33.53;13.20;;;15.70;82.20;;;;;;5053504;28;20443;-72
2023/10/02 03:47:33;;;;;;;30.07;12.90;;;15.70;81.10;;;;;;5053717;28;20448;-72
2023/10/02 03:50:03;;;;;;;27.83;13.43;;;15.70;81.40;;;;;;5053561;28;20377;-71
2023/10/02 03:52:30;;;;;;;27.47;13.00;;;15.70;81.00;;;;;;5053853;28;20907;-71
2023/10/02 03:54:56;;;;;;;28.33;12.77;;;15.70;80.90;;;;;;5053321;28;20409;-71
2023/10/02 03:57:47;;;;;;;30.45;13.13;;;15.60;81.60;;;;;;5035361;28;20961;-71
2023/10/02 04:00:43;;;;;;;30.38;13.68;;;15.70;81.40;;;;;;5053265;28;20787;-71
2023/10/02 04:03:05;;;;;;;26.48;12.50;;;15.70;80.90;;;;;;5052293;28;20509;-71
2023/10/02 04:05:43;;;;;;;26.42;12.70;;;15.70;81.40;;;;;;5053422;28;20386;-71
2023/10/02 04:08:14;;;;;;;27.88;13.77;;;15.70;81.20;;;;;;5053112;28;20785;-71
2023/10/02 04:10:55;;;;;;;32.25;13.30;;;15.70;81.50;;;;;;5053226;28;20464;-71
2023/10/02 04:13:38;;;;;;;30.45;13.50;;;15.70;81.20;;;;;;5053332;28;20937;-71
2023/10/02 04:18:49;;;;;;;29.90;13.10;;;15.70;79.00;;;;;;5053127;28;20391;-73
2023/10/02 04:21:22;;;;;;;28.20;13.02;;;15.80;77.10;;;;;;5053871;28;20401;-71
2023/10/02 04:23:58;;;;;;;28.75;13.60;;;15.70;77.70;;;;;;5052943;28;20485;-70
2023/10/02 04:26:28;;;;;;;28.00;12.93;;;15.70;78.60;;;;;;5052474;28;20378;-71
2023/10/02 04:28:58;;;;;;;26.00;13.32;;;15.70;78.00;;;;;;5052972;28;20432;-71
2023/10/02 04:31:27;;;;;;;32.78;13.65;;;15.70;78.10;;;;;;5052499;28;20427;-71
2023/10/02 04:34:46;;;;;;;31.77;14.25;;;15.70;78.60;;;;;;5052660;28;20385;-71
2023/10/02 04:36:42;;;;;;;27.80;13.15;;;15.70;77.80;;;;;;5041800;28;20397;-71
2023/10/02 04:39:51;;;;;;;31.80;13.43;;;15.60;78.00;;;;;;5053245;28;20382;-71
2023/10/02 04:42:14;;;;;;;28.92;13.63;;;15.60;78.90;;;;;;5052263;28;20389;-71
2023/10/02 04:44:48;;;;;;;32.10;13.40;;;15.60;78.20;;;;;;5052538;28;20389;-71
2023/10/02 04:47:19;;;;;;;31.80;13.83;;;15.60;78.90;;;;;;5055942;28;20391;-72
2023/10/02 04:55:23;;;;;;;28.15;13.80;;;15.50;79.40;;;;;;5060589;28;20370;-71
2023/10/02 04:57:54;;;;;;;28.90;13.90;;;15.60;78.80;;;;;;5036107;28;20394;-71
2023/10/02 05:00:28;;;;;;;32.83;13.45;;;15.60;78.00;;;;;;5052703;28;20377;-72
2023/10/02 05:03:09;;;;;;;30.30;13.68;;;15.50;79.30;;;;;;5052038;28;20405;-72
2023/10/02 05:05:53;;;;;;;28.67;13.40;;;15.50;79.60;;;;;;5052395;28;20376;-72
2023/10/02 05:08:21;;;;;;;28.17;12.95;;;15.50;79.70;;;;;;5053054;28;20392;-72
2023/10/02 05:11:04;;;;;;;27.17;12.52;;;15.50;79.70;;;;;;5057710;28;20393;-72
2023/10/02 05:13:53;;;;;;;33.60;13.93;;;15.40;80.40;;;;;;5051909;28;20421;-72
2023/10/02 05:16:35;;;;;;;26.45;12.75;;;15.40;80.80;;;;;;5048493;28;20413;-72
2023/10/02 05:19:04;;;;;;;29.92;13.57;;;15.40;80.80;;;;;;5067423;28;20386;-71
2023/10/02 05:21:36;;;;;;;29.35;13.52;;;15.50;79.70;;;;;;5067244;28;20382;-71
2023/10/02 05:24:06;;;;;;;29.65;14.43;;;15.40;80.20;;;;;;5052259;28;20555;-72
2023/10/02 05:26:36;;;;;;;29.42;13.70;;;15.40;80.10;;;;;;5034703;28;20385;-71
2023/10/02 05:29:06;;;;;;;31.13;13.60;;;15.50;80.10;;;;;;5054324;28;20388;-71
2023/10/02 05:31:41;;;;;;;30.73;13.98;;;15.40;79.10;;;;;;5056340;28;20388;-72
2023/10/02 05:34:24;;;;;;;29.85;14.57;;;15.50;79.30;;;;;;5055049;28;20386;-72
2023/10/02 05:39:34;;;;;;;29.85;13.98;;;15.40;80.00;;;;;;5052234;28;20504;-72
2023/10/02 05:42:06;;;;;;;31.75;14.02;;;15.40;79.70;;;;;;5052116;28;20520;-72
2023/10/02 05:44:33;;;;;;;29.88;15.05;;;15.40;80.50;;;;;;5051950;28;20413;-72
2023/10/02 05:47:05;;;;;;;29.33;14.05;;;15.40;80.70;;;;;;5051325;28;20691;-71
2023/10/02 05:49:32;;;;;;;29.08;14.15;;;15.40;80.30;;;;;;5051467;28;20439;-72
2023/10/02 05:52:00;;;;;;;29.40;13.70;;;15.40;80.90;;;;;;5052150;28;20385;-72
2023/10/02 05:54:29;;;;;;;30.08;14.65;;;15.40;80.00;;;;;;5035051;28;20485;-72
2023/10/02 05:57:08;;;;;;;195.73;131.70;;;15.50;79.90;;;;;;5053002;28;20377;-71
2023/10/02 05:59:48;;;;;;;42.58;22.63;;;15.50;82.00;;;;;;5054023;28;20382;-72
2023/10/02 06:02:17;;;;;;;31.17;14.90;;;15.60;79.60;;;;;;5053313;28;20393;-72
2023/10/02 06:04:47;;;;;;;41.65;21.85;;;15.60;77.00;;;;;;5051393;28;20420;-71
2023/10/02 06:07:39;;;;;;;35.37;16.10;;;15.70;78.10;;;;;;5051290;28;20418;-71
2023/10/02 06:10:08;;;;;;;31.05;13.80;;;15.70;76.40;;;;;;5051167;28;20452;-72
2023/10/02 06:12:42;;;;;;;27.38;13.05;;;15.80;75.40;;;;;;5050622;28;20439;-72
2023/10/02 06:17:58;;;;;;;30.17;15.27;;;15.80;73.20;;;;;;5050298;28;20443;-71
2023/10/02 06:20:23;;;;;;;33.10;15.13;;;15.90;73.70;;;;;;5050335;28;20389;-71
2023/10/02 06:22:50;;;;;;;28.33;13.90;;;16.00;72.40;;;;;;5050338;28;20493;-71
2023/10/02 06:25:19;;;;;;;28.92;13.18;;;16.00;71.10;;;;;;5031868;28;20928;-72
2023/10/02 06:27:47;;;;;;;31.50;14.07;;;16.00;69.80;;;;;;5050744;28;20382;-71
2023/10/02 06:30:16;;;;;;;29.50;14.55;;;16.10;70.20;;;;;;5050040;28;20762;-72
2023/10/02 06:32:52;;;;;;;33.67;15.75;;;16.10;70.70;;;;;;5049774;28;20484;-72
2023/10/02 06:35:22;;;;;;;31.05;14.13;;;16.10;70.00;;;;;;5050717;28;20385;-71
2023/10/02 06:37:52;;;;;;;30.63;13.35;;;16.20;69.70;;;;;;5051477;28;20397;-74
2023/10/02 06:40:23;;;;;;;31.60;13.48;;;16.30;68.50;;;;;;5050007;28;20769;-71
2023/10/02 06:42:50;;;;;;;30.77;13.40;;;16.30;66.60;;;;;;5033194;28;20407;-72
2023/10/02 06:45:20;;;;;;;31.23;13.95;;;16.40;64.80;;;;;;5049814;28;20457;-73
2023/10/02 06:47:48;;;;;;;29.27;13.00;;;16.50;63.40;;;;;;5049854;28;21012;-73
2023/10/02 06:50:31;;;;;;;33.47;14.57;;;16.60;62.50;;;;;;5046976;28;20409;-72
2023/10/02 06:53:00;;;;;;;29.30;13.57;;;16.70;61.60;;;;;;5024204;28;20856;-71
2023/10/02 06:55:26;;;;;;;29.25;14.20;;;16.80;59.50;;;;;;5028402;28;20807;-72
2023/10/02 06:57:56;;;;;;;26.50;13.60;;;16.90;59.40;;;;;;5028149;28;20693;-72
2023/10/02 07:00:23;;;;;;;29.48;13.75;;;17.00;59.30;;;;;;5035052;28;20462;-72
2023/10/02 07:02:58;;;;;;;37.22;18.92;;;17.00;57.70;;;;;;5047347;28;20870;-73
2023/10/02 07:05:32;;;;;;;33.38;14.93;;;17.10;57.40;;;;;;5047860;28;20389;-73
2023/10/02 07:08:01;;;;;;;31.13;13.63;;;17.20;56.80;;;;;;5045890;28;20767;-72
2023/10/02 07:10:42;;;;;;;32.38;17.23;;;17.20;56.90;;;;;;5047666;28;20471;-73
2023/10/02 07:13:20;;;;;;;28.05;12.80;;;17.20;56.50;;;;;;5047264;28;20397;-72
2023/10/02 07:15:47;;;;;;;29.88;13.35;;;17.40;54.90;;;;;;5047497;28;20393;-73
2023/10/02 07:18:14;;;;;;;31.13;14.10;;;17.40;54.40;;;;;;5047670;28;20389;-72
2023/10/02 07:20:43;;;;;;;31.00;13.32;;;17.40;54.00;;;;;;5047282;28;20405;-72
2023/10/02 07:23:20;;;;;;;27.57;13.10;;;17.50;53.60;;;;;;5047260;28;20983;-72
2023/10/02 07:25:52;;;;;;;32.10;13.77;;;17.50;53.50;;;;;;5047249;28;20401;-72
2023/10/02 07:28:21;;;;;;;30.52;13.15;;;17.60;53.60;;;;;;5050245;28;20398;-73
2023/10/02 07:30:47;;;;;;;27.15;12.00;;;17.60;52.70;;;;;;5049714;28;20389;-73
2023/10/02 07:33:13;;;;;;;31.88;13.20;;;17.70;51.80;;;;;;5046683;28;20417;-71
2023/10/02 07:35:39;;;;;;;30.90;13.60;;;17.80;51.50;;;;;;5029795;28;20394;-72
2023/10/02 07:38:08;;;;;;;31.57;13.70;;;17.80;51.40;;;;;;5047755;28;20819;-73
2023/10/02 07:40:48;;;;;;;29.13;13.13;;;17.90;51.80;;;;;;5047811;28;20389;-72
2023/10/02 07:43:20;;;;;;;27.08;12.95;;;17.90;51.20;;;;;;5047286;28;20411;-72
2023/10/02 07:46:06;;;;;;;26.67;13.10;;;18.10;50.70;;;;;;5046846;28;20872;-72
2023/10/02 07:48:35;;;;;;;31.20;13.88;;;18.20;50.40;;;;;;5030482;28;20371;-72
2023/10/02 07:51:01;;;;;;;30.05;13.68;;;18.30;50.30;;;;;;5030665;28;20400;-72
2023/10/02 07:53:40;;;;;;;27.70;13.30;;;18.40;49.60;;;;;;5047510;28;20382;-72
2023/10/02 07:56:11;;;;;;;27.05;12.98;;;18.50;48.70;;;;;;5050004;28;20397;-72
2023/10/02 07:58:41;;;;;;;29.98;13.05;;;18.60;47.70;;;;;;5051280;28;20381;-73
2023/10/02 08:01:13;;;;;;;31.08;13.75;;;18.70;47.30;;;;;;5050514;28;20393;-73
2023/10/02 08:03:49;;;;;;;30.58;13.07;;;18.70;47.20;;;;;;5051110;28;20409;-71
2023/10/02 08:06:21;;;;;;;27.13;12.68;;;18.80;47.00;;;;;;5050642;28;20404;-72
2023/10/02 08:09:35;;;;;;;31.42;13.32;;;18.90;47.30;;;;;;5030596;28;20390;-72
2023/10/02 08:11:39;;;;;;;29.83;13.37;;;19.10;44.60;;;;;;5049173;28;20448;-72
2023/10/02 08:14:06;;;;;;;27.92;13.35;;;19.20;44.30;;;;;;5050547;28;20730;-71
2023/10/02 08:16:58;;;;;;;30.13;13.27;;;19.30;43.70;;;;;;5050989;28;20397;-73
2023/10/02 08:19:20;;;;;;;26.88;12.48;;;19.40;43.20;;;;;;5050835;28;20401;-72
2023/10/02 08:21:48;;;;;;;30.00;13.38;;;19.50;42.50;;;;;;5049337;28;20759;-71
2023/10/02 08:24:14;;;;;;;30.50;13.48;;;19.60;41.80;;;;;;5049942;28;20413;-71
2023/10/02 08:26:46;;;;;;;28.00;13.55;;;19.70;41.60;;;;;;5049761;28;20899;-72
2023/10/02 08:29:14;;;;;;;29.10;13.07;;;19.80;41.10;;;;;;5049802;28;20405;-72
2023/10/02 08:31:49;;;;;;;29.58;13.20;;;19.90;41.20;;;;;;5037923;28;20433;-72
2023/10/02 08:34:20;;;;;;;31.23;13.70;;;20.00;40.10;;;;;;5030232;28;20383;-72
2023/10/02 08:36:47;;;;;;;27.90;13.00;;;20.10;39.80;;;;;;5030202;28;20883;-71
2023/10/02 08:39:13;;;;;;;30.00;13.63;;;20.20;39.70;;;;;;5031251;28;20391;-73
2023/10/02 08:41:44;;;;;;;31.83;14.00;;;20.30;38.80;;;;;;5046499;28;20492;-73
2023/10/02 08:44:12;;;;;;;28.67;13.65;;;20.30;38.20;;;;;;5051186;28;20504;-73
2023/10/02 08:46:40;;;;;;;32.20;13.68;;;20.40;38.10;;;;;;5049806;28;20401;-73
2023/10/02 08:49:06;;;;;;;27.58;12.60;;;20.40;37.90;;;;;;5049378;28;20480;-73
2023/10/02 08:51:38;;;;;;;28.23;12.63;;;20.50;37.80;;;;;;5049564;28;20472;-74
2023/10/02 08:54:07;;;;;;;31.48;13.80;;;20.70;37.50;;;;;;5049482;28;20401;-73
2023/10/02 08:56:49;;;;;;;30.15;13.35;;;20.80;37.00;;;;;;5049036;28;20477;-73
2023/10/02 08:59:26;;;;;;;28.40;13.40;;;20.80;37.00;;;;;;5049919;28;20382;-73
2023/10/02 09:02:05;;;;;;;29.77;13.45;;;20.90;36.60;;;;;;5048789;28;20484;-73
2023/10/02 09:04:32;;;;;;;28.05;13.60;;;20.90;36.10;;;;;;5046562;28;20498;-74
2023/10/02 09:07:14;;;;;;;29.67;13.30;;;21.00;37.00;;;;;;5046871;28;20405;-72
2023/10/02 09:09:45;;;;;;;30.23;13.80;;;21.00;36.40;;;;;;5050470;28;20463;-73
2023/10/02 09:12:15;;;;;;;28.87;13.33;;;21.10;36.40;;;;;;5043927;28;20383;-72
2023/10/02 09:14:41;;;;;;;32.88;13.13;;;21.10;35.80;;;;;;5032005;28;20474;-72
2023/10/02 09:20:00;;;;;;;29.73;14.18;;;21.30;35.60;;;;;;5038786;28;20429;-72
2023/10/02 09:22:27;;;;;;;28.70;13.40;;;21.40;35.00;;;;;;5038021;28;20387;-72
2023/10/02 09:25:35;;;;;;;28.42;13.48;;;21.50;35.50;;;;;;5045325;22;20426;-75
2023/10/02 09:28:04;;;;;;;34.50;14.40;;;21.60;34.10;;;;;;5031748;28;20382;-75
2023/10/02 09:33:14;;;;;;;29.85;14.40;;;21.90;33.50;;;;;;5031959;28;20399;-75
2023/10/02 09:38:07;;;;;;;30.33;13.70;;;22.10;33.40;;;;;;5032081;28;20444;-72
2023/10/02 09:41:00;;;;;;;32.90;14.65;;;22.20;32.20;;;;;;5031559;28;20391;-72
2023/10/02 09:43:33;;;;;;;35.13;15.45;;;22.20;31.10;;;;;;5031890;28;20407;-74
2023/10/02 09:46:06;;;;;;;29.83;14.80;;;22.20;30.90;;;;;;5031901;28;20387;-74
2023/10/02 09:48:46;;;;;;;35.05;15.18;;;22.30;30.80;;;;;;5031282;28;20375;-73
2023/10/02 09:51:38;;;;;;;31.43;14.50;;;22.30;31.00;;;;;;5031254;28;20379;-73
2023/10/02 09:54:13;;;;;;;30.47;14.73;;;22.40;30.90;;;;;;5031269;28;20517;-74
2023/10/02 09:57:24;;;;;;;31.40;14.80;;;22.40;31.50;;;;;;5031766;28;20379;-74
2023/10/02 09:59:46;;;;;;;33.13;14.57;;;22.50;30.50;;;;;;5030641;28;20430;-76
2023/10/02 10:10:49;;;;;;;31.08;14.95;;;23.00;29.70;;;;;;5031867;28;20407;-74
2023/10/02 10:13:25;;;;;;;31.25;14.07;;;23.00;29.60;;;;;;5030822;28;20394;-74
2023/10/02 10:16:19;;;;;;;31.58;13.60;;;23.10;29.10;;;;;;5030899;28;20408;-74
2023/10/02 10:19:26;;;;;;;28.50;13.75;;;23.10;28.90;;;;;;5031231;28;20480;-75
2023/10/02 10:21:56;;;;;;;29.77;13.82;;;23.20;28.90;;;;;;5030802;28;20399;-76
2023/10/02 10:24:51;;;;;;;30.95;14.65;;;23.30;28.20;;;;;;5010225;28;20483;-74
2023/10/02 10:27:39;;;;;;;36.60;17.88;;;23.40;28.40;;;;;;5030449;28;20399;-75
2023/10/02 10:30:33;;;;;;;33.88;15.18;;;23.40;27.80;;;;;;5032304;28;20390;-75
2023/10/02 10:35:49;;;;;;;29.05;14.23;;;23.70;27.40;;;;;;5030962;28;20402;-74
2023/10/02 10:38:25;;;;;;;29.85;14.25;;;23.90;27.20;;;;;;5031606;28;20383;-75
2023/10/02 10:40:59;;;;;;;29.58;14.63;;;24.10;27.00;;;;;;5029892;28;20403;-73
2023/10/02 10:43:43;;;;;;;34.08;15.50;;;24.10;26.40;;;;;;5030042;28;20415;-75
2023/10/02 10:46:21;;;;;;;29.77;14.65;;;24.10;26.00;;;;;;5030870;28;20387;-74
2023/10/02 10:49:15;;;;;;;33.80;14.70;;;24.30;26.20;;;;;;5030665;28;20399;-73
2023/10/02 10:51:42;;;;;;;38.55;15.90;;;24.20;25.70;;;;;;5028843;28;20398;-76
2023/10/02 10:54:13;;;;;;;32.97;15.05;;;24.30;26.00;;;;;;5031413;28;20406;-76
2023/10/02 10:57:18;;;;;;;31.38;14.77;;;24.40;26.00;;;;;;5031978;28;20380;-76
2023/10/02 10:59:47;;;;;;;30.73;13.85;;;24.50;25.50;;;;;;5031466;28;20391;-76
2023/10/02 11:02:16;;;;;;;28.05;13.65;;;24.60;25.00;;;;;;5030371;28;20429;-77
2023/10/02 11:04:49;;;;;;;31.48;14.65;;;24.70;24.70;;;;;;5031061;28;20453;-74
2023/10/02 11:07:25;;;;;;;32.88;14.93;;;24.90;24.70;;;;;;5030842;28;20910;-74
2023/10/02 11:10:14;;;;;;;32.65;15.55;;;25.10;23.60;;;;;;5029089;28;20394;-75
2023/10/02 11:12:40;;;;;;;34.85;15.15;;;25.10;23.10;;;;;;5031773;28;20402;-75
2023/10/02 11:15:43;;;;;;;33.70;15.50;;;25.40;22.30;;;;;;5031815;28;20894;-77
2023/10/02 11:18:18;;;;;;;34.03;15.10;;;25.50;21.70;;;;;;5028886;28;20469;-76
2023/10/02 11:20:51;;;;;;;31.55;14.43;;;25.60;21.70;;;;;;5029877;28;20427;-76
2023/10/02 11:23:43;;;;;;;33.50;15.57;;;25.70;21.40;;;;;;5027667;28;20429;-75
2023/10/02 11:26:21;;;;;;;34.03;14.73;;;25.70;21.50;;;;;;5029272;28;20929;-76
2023/10/02 11:28:50;;;;;;;29.60;14.60;;;25.90;21.20;;;;;;5029229;28;20461;-75
2023/10/02 11:31:31;;;;;;;31.17;14.88;;;25.90;21.10;;;;;;5029021;28;20751;-75
2023/10/02 11:34:08;;;;;;;36.80;16.40;;;26.00;21.20;;;;;;5032752;28;20448;-75
2023/10/02 11:36:36;;;;;;;31.55;15.32;;;26.10;21.70;;;;;;5030731;28;20435;-77
2023/10/02 11:39:08;;;;;;;33.27;15.23;;;26.00;21.60;;;;;;5032208;28;20423;-74
2023/10/02 11:41:34;;;;;;;32.80;15.57;;;26.00;21.30;;;;;;5032832;28;20397;-75
2023/10/02 11:44:00;;;;;;;30.45;14.80;;;26.10;21.50;;;;;;5033759;28;20763;-76
2023/10/02 11:46:25;;;;;;;37.40;15.10;;;26.20;21.20;;;;;;5031088;28;20399;-76
2023/10/02 11:48:51;;;;;;;32.97;15.32;;;26.10;22.60;;;;;;5033919;28;20387;-73
2023/10/02 11:51:17;;;;;;;31.07;14.70;;;26.10;21.30;;;;;;5032422;28;20410;-74
2023/10/02 11:53:42;;;;;;;31.40;14.60;;;26.10;21.50;;;;;;5032954;28;20429;-75
2023/10/02 11:56:08;;;;;;;32.13;14.67;;;26.20;20.90;;;;;;5031499;28;20387;-75
2023/10/02 11:58:34;;;;;;;32.58;14.48;;;26.30;20.60;;;;;;5032312;28;20474;-75
2023/10/02 12:01:04;;;;;;;30.83;15.33;;;26.50;20.90;;;;;;5032631;28;20433;-74
2023/10/02 12:03:36;;;;;;;34.75;14.90;;;26.80;19.80;;;;;;5033501;28;20887;-75
2023/10/02 12:06:10;;;;;;;29.97;13.93;;;26.80;19.50;;;;;;5031998;28;20425;-76
2023/10/02 12:08:35;;;;;;;30.67;14.03;;;26.90;19.20;;;;;;5032939;28;20399;-74
2023/10/02 12:11:01;;;;;;;29.77;14.60;;;27.00;19.00;;;;;;5032737;28;20820;-75
2023/10/02 12:13:27;;;;;;;29.80;13.93;;;27.10;19.10;;;;;;5032392;28;20395;-75
2023/10/02 12:15:54;;;;;;;31.30;14.23;;;27.30;18.80;;;;;;5032537;28;20402;-76
2023/10/02 12:18:21;;;;;;;28.52;13.80;;;27.50;18.60;;;;;;5032063;28;20419;-74
2023/10/02 12:20:49;;;;;;;27.95;14.02;;;28.00;18.20;;;;;;5032147;28;20458;-76
2023/10/02 12:23:16;;;;;;;27.92;14.15;;;28.00;17.80;;;;;;5032999;28;20822;-77
2023/10/02 12:25:47;;;;;;;29.98;14.40;;;27.80;17.30;;;;;;5027324;28;20425;-76
2023/10/02 12:28:12;;;;;;;31.98;14.65;;;27.80;17.40;;;;;;5031304;28;20395;-76
2023/10/02 12:30:38;;;;;;;30.17;13.80;;;27.90;17.70;;;;;;5033241;28;20436;-76
2023/10/02 12:33:03;;;;;;;29.73;13.90;;;27.90;17.20;;;;;;5035101;28;20736;-76
2023/10/02 12:35:39;;;;;;;40.05;13.68;;;28.10;17.40;;;;;;5033933;28;20737;-76
2023/10/02 12:38:07;;;;;;;29.63;14.18;;;28.10;16.90;;;;;;5035710;28;20496;-75
2023/10/02 12:40:33;;;;;;;29.33;14.30;;;28.10;16.90;;;;;;5036255;28;20387;-76
2023/10/02 12:43:01;;;;;;;29.90;13.73;;;28.20;16.60;;;;;;5035866;28;20402;-75
2023/10/02 12:45:30;;;;;;;30.10;14.15;;;28.20;16.40;;;;;;5035693;28;20383;-76
2023/10/02 12:47:55;;;;;;;30.33;13.93;;;28.40;16.30;;;;;;5035907;28;20725;-76
2023/10/02 12:50:21;;;;;;;27.90;13.70;;;28.20;16.60;;;;;;5035788;28;20429;-75
2023/10/02 12:52:46;;;;;;;26.77;13.73;;;28.00;16.80;;;;;;5033092;28;20971;-76
2023/10/02 12:55:13;;;;;;;29.57;14.30;;;27.90;16.80;;;;;;5033448;28;20399;-77
2023/10/02 12:57:39;;;;;;;29.50;13.32;;;28.10;17.30;;;;;;5033245;28;20758;-76
2023/10/02 13:00:16;;;;;;;27.40;13.90;;;28.00;16.40;;;;;;5033322;28;20398;-74
2023/10/02 13:02:42;;;;;;;26.52;12.77;;;28.20;16.50;;;;;;5032188;28;20806;-74
2023/10/02 13:05:09;;;;;;;25.63;13.73;;;28.20;16.40;;;;;;5031666;28;20399;-74
2023/10/02 13:07:35;;;;;;;26.85;13.50;;;28.00;16.80;;;;;;5032724;28;20398;-75
2023/10/02 13:10:00;;;;;;;31.70;14.03;;;27.80;16.70;;;;;;5032909;28;20383;-77
2023/10/02 13:12:26;;;;;;;29.80;13.43;;;27.70;17.10;;;;;;5032422;28;20868;-75
2023/10/02 13:14:54;;;;;;;30.77;13.05;;;27.70;17.30;;;;;;5031959;28;20568;-75
2023/10/02 13:17:20;;;;;;;29.23;14.02;;;27.70;17.00;;;;;;5032381;28;20751;-76
2023/10/02 13:19:45;;;;;;;28.93;13.67;;;27.70;16.60;;;;;;5031972;28;20387;-75
2023/10/02 13:22:11;;;;;;;28.00;14.03;;;27.60;16.60;;;;;;5032501;28;20390;-76
2023/10/02 13:24:36;;;;;;;30.75;13.55;;;27.60;17.10;;;;;;5032729;28;20838;-76
2023/10/02 13:27:02;;;;;;;31.60;14.47;;;27.80;16.80;;;;;;5032676;28;20872;-76
2023/10/02 13:29:28;;;;;;;29.15;13.23;;;27.80;16.60;;;;;;5032555;28;20465;-76
2023/10/02 13:31:53;;;;;;;30.40;13.73;;;28.00;16.60;;;;;;5032788;28;20445;-75
2023/10/02 13:34:20;;;;;;;26.47;13.17;;;28.00;16.60;;;;;;5031785;28;20398;-76
2023/10/02 13:36:46;;;;;;;25.75;13.20;;;28.00;16.40;;;;;;5031781;28;20387;-76